Time;durP1;ratioP1;P1;durP2;ratioP2;P2;SDS_P1;SDS_P2;PMS_P1;PMS_P2;Temp;Humidity;BMP_temperature;BMP_pressure;BME280_temperature;BME280_humidity;BME280_pressure;Samples;Min_cycle;Max_cycle;Signal;HPM_P1;HPM_P2
2021/05/21 00:00:17;;;;;;;10.10;9.10;;;;;;;14.09;54.55;100601.66;5102984;28;20188;-64
2021/05/21 00:02:43;;;;;;;10.70;9.40;;;;;;;14.14;55.36;100602.50;5120978;28;20443;-64
2021/05/21 00:05:09;;;;;;;10.47;9.37;;;;;;;13.90;55.43;100595.69;5121460;28;20191;-65
2021/05/21 00:07:34;;;;;;;9.40;8.50;;;;;;;14.12;55.59;100588.53;5120966;28;20520;-65
2021/05/21 00:09:59;;;;;;;9.97;8.97;;;;;;;14.23;55.11;100587.59;5120963;28;20405;-65
2021/05/21 00:12:25;;;;;;;10.30;9.30;;;;;;;13.61;56.42;100581.00;5121099;28;20175;-65
2021/05/21 00:14:50;;;;;;;10.30;9.30;;;;;;;13.90;56.25;100581.72;5111773;28;20573;-64
2021/05/21 00:17:16;;;;;;;9.70;8.80;;;;;;;13.82;56.49;100582.63;5100425;28;20249;-64
2021/05/21 00:19:41;;;;;;;10.77;9.10;;;;;;;13.75;57.22;100569.59;5100765;28;20169;-65
2021/05/21 00:22:06;;;;;;;10.97;9.97;;;;;;;12.99;59.09;100569.91;5100027;28;20168;-64
2021/05/21 00:24:32;;;;;;;9.53;8.73;;;;;;;13.44;57.95;100565.38;5100036;28;20537;-65
2021/05/21 00:26:57;;;;;;;9.93;8.93;;;;;;;13.54;58.53;100554.84;5100696;28;20533;-65
2021/05/21 00:29:22;;;;;;;11.00;9.77;;;;;;;13.52;57.87;100547.00;5100283;28;20184;-65
2021/05/21 00:31:48;;;;;;;10.47;9.47;;;;;;;13.52;58.22;100551.34;5101078;28;20513;-65
2021/05/21 00:34:13;;;;;;;10.60;9.60;;;;;;;13.35;58.98;100547.06;5100459;28;20259;-64
2021/05/21 00:36:38;;;;;;;10.30;9.40;;;;;;;13.44;58.93;100544.41;5099929;28;20221;-65
2021/05/21 00:39:04;;;;;;;10.00;9.00;;;;;;;13.26;59.54;100532.28;5099840;28;20172;-64
2021/05/21 00:41:30;;;;;;;11.07;10.07;;;;;;;13.33;59.64;100530.50;5100250;28;20179;-63
2021/05/21 00:43:56;;;;;;;10.80;9.80;;;;;;;12.90;61.07;100522.84;5099787;28;20466;-64
2021/05/21 00:46:21;;;;;;;11.10;10.10;;;;;;;13.07;60.77;100518.41;5099914;28;20226;-63
2021/05/21 00:48:47;;;;;;;10.80;9.70;;;;;;;12.93;61.15;100522.81;5100138;28;20410;-64
2021/05/21 00:51:12;;;;;;;11.30;10.10;;;;;;;13.22;60.32;100513.94;5099482;28;20172;-65
2021/05/21 00:53:37;;;;;;;10.60;9.60;;;;;;;12.50;63.03;100512.47;5099674;28;20488;-64
2021/05/21 00:56:03;;;;;;;11.23;10.27;;;;;;;12.68;62.60;100509.81;5106899;28;20180;-65
2021/05/21 00:58:28;;;;;;;11.23;10.17;;;;;;;12.98;60.97;100513.19;5119806;28;20432;-65
2021/05/21 01:00:55;;;;;;;11.43;10.30;;;;;;;13.01;61.04;100502.72;5119897;28;20220;-65
2021/05/21 01:03:21;;;;;;;11.73;10.60;;;;;;;13.20;60.69;100486.94;5120207;28;20243;-65
2021/05/21 01:05:46;;;;;;;11.50;10.40;;;;;;;12.84;61.33;100487.09;5119721;28;20876;-64
2021/05/21 01:08:13;;;;;;;11.93;10.23;;;;;;;13.14;60.21;100478.22;5119565;28;20469;-64
2021/05/21 01:10:39;;;;;;;11.23;10.13;;;;;;;13.05;60.15;100486.13;5104716;28;20176;-64
2021/05/21 01:13:04;;;;;;;11.00;9.90;;;;;;;13.11;60.32;100478.25;5099243;28;20418;-65
2021/05/21 01:15:34;;;;;;;14.60;9.90;;;;;;;13.12;59.75;100466.03;5099038;28;20168;-65
2021/05/21 01:18:00;;;;;;;11.00;9.83;;;;;;;12.73;61.34;100470.56;5099655;28;20295;-65
2021/05/21 01:20:29;;;;;;;10.90;9.80;;;;;;;12.66;61.54;100464.47;5099038;28;20451;-65
2021/05/21 01:22:54;;;;;;;12.00;10.80;;;;;;;12.22;63.05;100458.50;5098851;28;20183;-64
2021/05/21 01:25:20;;;;;;;12.20;10.90;;;;;;;12.51;62.95;100448.84;5099367;28;20992;-64
2021/05/21 01:27:45;;;;;;;12.10;10.90;;;;;;;12.55;62.71;100445.34;5099034;28;20176;-64
2021/05/21 01:30:11;;;;;;;12.17;10.97;;;;;;;12.71;62.62;100441.78;5099098;28;20688;-64
2021/05/21 01:32:37;;;;;;;12.90;11.70;;;;;;;12.61;62.10;100437.47;5098715;28;20192;-64
2021/05/21 01:35:04;;;;;;;12.40;11.30;;;;;;;12.47;63.29;100427.06;5098901;28;20471;-64
2021/05/21 01:37:30;;;;;;;13.17;11.10;;;;;;;12.85;61.71;100420.78;5099185;28;20203;-65
2021/05/21 01:39:55;;;;;;;13.37;11.67;;;;;;;12.78;62.19;100411.25;5098871;28;20461;-65
2021/05/21 01:42:21;;;;;;;12.33;11.07;;;;;;;12.08;63.80;100414.09;5098734;28;20179;-64
2021/05/21 01:44:46;;;;;;;12.83;11.53;;;;;;;12.10;64.38;100409.72;5099251;28;20274;-65
2021/05/21 01:47:13;;;;;;;13.20;11.90;;;;;;;12.61;62.70;100411.31;5098063;28;20248;-64
2021/05/21 01:49:39;;;;;;;13.37;10.87;;;;;;;12.49;62.73;100400.91;5098693;28;20184;-64
2021/05/21 01:52:04;;;;;;;14.20;11.73;;;;;;;12.21;64.15;100396.63;5098809;28;20406;-64
2021/05/21 01:54:30;;;;;;;12.37;11.07;;;;;;;11.57;66.25;100401.06;5098656;28;20490;-64
2021/05/21 01:57:01;;;;;;;12.33;11.13;;;;;;;12.35;63.84;100386.13;5097881;28;20167;-65
2021/05/21 01:59:26;;;;;;;13.23;11.93;;;;;;;12.44;63.76;100382.63;5098954;28;20218;-64
2021/05/21 02:01:53;;;;;;;15.47;12.73;;;;;;;12.06;64.16;100381.88;5098365;28;20414;-64
2021/05/21 02:04:35;;;;;;;13.20;12.00;;;;;;;12.02;64.72;100379.28;5114636;28;20253;-64
2021/05/21 02:07:01;;;;;;;12.80;11.50;;;;;;;12.16;64.83;100368.78;5098835;28;20418;-64
2021/05/21 02:09:27;;;;;;;15.20;12.53;;;;;;;11.97;65.25;100368.81;5116559;28;20406;-64
2021/05/21 02:11:53;;;;;;;13.33;12.03;;;;;;;11.95;65.57;100360.13;5118331;28;20170;-64
2021/05/21 02:14:18;;;;;;;13.43;12.13;;;;;;;11.64;66.27;100362.75;5118660;28;20417;-64
2021/05/21 02:16:44;;;;;;;12.60;11.30;;;;;;;11.66;66.27;100358.38;5118564;28;20570;-64
2021/05/21 02:19:09;;;;;;;14.80;13.27;;;;;;;11.49;66.45;100349.69;5118988;28;20190;-64
2021/05/21 02:21:35;;;;;;;14.20;12.80;;;;;;;11.44;67.20;100340.13;5110925;28;20183;-63
2021/05/21 02:24:03;;;;;;;13.10;11.80;;;;;;;11.31;67.43;100335.78;5097963;28;20232;-64
2021/05/21 02:26:30;;;;;;;13.93;12.63;;;;;;;11.02;68.57;100333.16;5098724;28;20798;-64
2021/05/21 02:28:55;;;;;;;13.50;12.27;;;;;;;11.27;67.54;100334.94;5098100;28;20838;-64
2021/05/21 02:31:20;;;;;;;15.70;13.03;;;;;;;11.44;67.51;100332.28;5097906;28;20449;-64
2021/05/21 02:33:46;;;;;;;18.60;12.73;;;;;;;11.55;67.00;100327.06;5098431;28;20184;-64
2021/05/21 02:36:11;;;;;;;14.27;12.80;;;;;;;11.51;67.00;100311.41;5098159;28;20215;-64
2021/05/21 02:38:36;;;;;;;12.90;11.60;;;;;;;11.33;67.71;100317.53;5098126;28;20221;-65
2021/05/21 02:41:02;;;;;;;13.23;12.03;;;;;;;11.83;66.02;100305.28;5097853;28;20529;-64
2021/05/21 02:43:27;;;;;;;13.07;11.80;;;;;;;11.28;68.40;100320.13;5097842;28;20173;-64
2021/05/21 02:45:52;;;;;;;14.03;12.60;;;;;;;11.29;67.83;100301.00;5097931;28;20263;-65
2021/05/21 02:48:18;;;;;;;13.40;12.00;;;;;;;11.91;66.29;100290.47;5098360;28;20247;-65
2021/05/21 02:50:43;;;;;;;13.90;12.50;;;;;;;11.77;65.98;100283.53;5098218;28;20475;-65
2021/05/21 02:53:09;;;;;;;11.77;10.77;;;;;;;11.93;65.59;100286.97;5097947;28;20544;-64
2021/05/21 02:55:34;;;;;;;14.23;12.70;;;;;;;11.86;65.21;100277.38;5098439;28;20529;-64
2021/05/21 02:58:00;;;;;;;13.53;12.13;;;;;;;11.92;64.91;100271.28;5105154;28;20433;-64
2021/05/21 03:00:26;;;;;;;12.80;11.50;;;;;;;11.69;66.16;100280.06;5118331;28;20487;-65
2021/05/21 03:02:51;;;;;;;13.77;11.63;;;;;;;11.50;66.92;100275.75;5118439;28;20440;-65
2021/05/21 03:05:22;;;;;;;13.33;12.00;;;;;;;11.92;65.71;100268.66;5118166;28;20199;-65
2021/05/21 03:07:54;;;;;;;15.83;12.27;;;;;;;11.02;68.99;100268.81;5118288;28;20533;-65
2021/05/21 03:10:21;;;;;;;13.27;11.93;;;;;;;11.73;66.36;100266.13;5118179;28;20501;-64
2021/05/21 03:12:46;;;;;;;13.77;12.27;;;;;;;11.45;67.19;100254.88;5103201;28;20442;-64
2021/05/21 03:15:12;;;;;;;13.27;12.07;;;;;;;11.80;65.95;100257.38;5098212;28;20437;-64
2021/05/21 03:17:37;;;;;;;13.93;12.43;;;;;;;11.73;66.41;100249.56;5097770;28;20302;-63
2021/05/21 03:20:03;;;;;;;13.33;12.03;;;;;;;11.80;66.14;100241.72;5099052;28;20176;-64
2021/05/21 03:22:28;;;;;;;13.00;11.80;;;;;;;11.05;68.10;100242.72;5101680;28;20260;-64
2021/05/21 03:24:54;;;;;;;12.90;11.60;;;;;;;11.63;66.67;100238.28;5101574;28;20246;-64
2021/05/21 03:27:19;;;;;;;15.03;13.53;;;;;;;11.60;66.90;100235.69;5121917;28;20175;-64
2021/05/21 03:29:44;;;;;;;13.63;12.33;;;;;;;11.68;66.71;100239.16;5122143;28;20163;-64
2021/05/21 03:32:12;;;;;;;12.93;11.73;;;;;;;11.95;65.80;100221.69;5121449;28;20277;-64
2021/05/21 03:34:37;;;;;;;12.33;11.13;;;;;;;10.93;68.23;100224.47;5121673;28;20188;-64
2021/05/21 03:37:03;;;;;;;13.50;12.20;;;;;;;10.93;69.46;100220.16;5122550;28;20676;-64
2021/05/21 03:39:28;;;;;;;13.03;11.73;;;;;;;11.66;66.55;100209.56;5113710;28;20203;-64
2021/05/21 03:41:53;;;;;;;13.23;11.80;;;;;;;11.88;65.59;100204.25;5101228;28;20226;-64
2021/05/21 03:44:19;;;;;;;15.50;11.17;;;;;;;11.73;66.31;100203.47;5101355;28;20200;-64
2021/05/21 03:46:44;;;;;;;12.43;11.23;;;;;;;11.69;66.97;100203.47;5100936;28;20232;-64
2021/05/21 03:49:12;;;;;;;12.50;11.30;;;;;;;11.01;68.39;100195.78;5100928;28;20172;-64
2021/05/21 03:51:37;;;;;;;12.53;11.27;;;;;;;11.85;66.06;100199.03;5101182;28;20169;-64
2021/05/21 03:54:03;;;;;;;12.77;11.57;;;;;;;11.63;66.67;100201.75;5100992;28;20429;-64
2021/05/21 03:56:28;;;;;;;12.90;11.60;;;;;;;11.39;67.84;100193.13;5100813;28;20176;-64
2021/05/21 03:58:56;;;;;;;12.03;10.93;;;;;;;11.92;65.69;100178.13;5100552;28;20423;-65
2021/05/21 04:01:22;;;;;;;11.97;10.87;;;;;;;11.63;67.19;100180.84;5100359;28;20203;-64
2021/05/21 04:03:47;;;;;;;11.70;10.53;;;;;;;11.75;65.87;100180.78;5100425;28;20424;-65
2021/05/21 04:06:13;;;;;;;15.57;11.80;;;;;;;10.93;69.18;100172.31;5100810;28;20417;-64
2021/05/21 04:08:38;;;;;;;12.27;11.17;;;;;;;11.24;68.05;100172.28;5120720;28;20537;-64
2021/05/21 04:11:03;;;;;;;12.03;10.83;;;;;;;11.48;67.96;100165.25;5120876;27;20254;-65
2021/05/21 04:13:29;;;;;;;12.00;10.73;;;;;;;11.71;66.20;100165.16;5121332;28;20471;-64
2021/05/21 04:15:54;;;;;;;11.57;10.47;;;;;;;12.06;64.67;100159.78;5120834;28;20171;-65
2021/05/21 04:18:19;;;;;;;11.40;10.20;;;;;;;12.24;64.51;100150.09;5120913;28;20160;-65
2021/05/21 04:20:44;;;;;;;14.13;10.90;;;;;;;11.98;65.36;100156.34;5114796;28;20173;-65
2021/05/21 04:23:10;;;;;;;11.67;10.47;;;;;;;11.33;66.46;100148.75;5100402;28;20176;-64
2021/05/21 04:25:36;;;;;;;12.30;11.10;;;;;;;12.18;64.89;100147.50;5100101;28;20272;-65
2021/05/21 04:28:02;;;;;;;11.40;10.30;;;;;;;11.71;65.23;100141.66;5100633;28;20168;-64
2021/05/21 04:30:27;;;;;;;11.97;10.87;;;;;;;11.88;65.06;100134.63;5099952;28;20399;-64
2021/05/21 04:32:52;;;;;;;12.90;11.27;;;;;;;11.90;65.55;100132.00;5098853;28;20281;-64
2021/05/21 04:35:19;;;;;;;10.33;9.33;;;;;;;11.78;65.67;100132.91;5112366;28;20220;-65
2021/05/21 04:37:44;;;;;;;11.57;10.37;;;;;;;11.73;65.28;100125.13;5120417;28;20178;-65
2021/05/21 04:40:10;;;;;;;10.70;9.67;;;;;;;12.24;63.71;100126.56;5118045;28;20433;-65
2021/05/21 04:42:35;;;;;;;11.70;9.97;;;;;;;12.17;64.03;100122.28;5120443;27;20206;-64
2021/05/21 04:45:01;;;;;;;11.10;10.07;;;;;;;11.93;64.75;100118.91;5117779;27;20525;-65
2021/05/21 04:47:26;;;;;;;11.13;10.03;;;;;;;11.98;64.14;100117.16;5119562;27;20178;-66
2021/05/21 04:49:51;;;;;;;11.00;9.90;;;;;;;12.44;62.77;100109.00;5116992;27;20180;-64
2021/05/21 04:52:17;;;;;;;10.23;9.33;;;;;;;12.68;61.99;100116.63;5104697;28;20182;-64
2021/05/21 04:54:42;;;;;;;9.40;8.50;;;;;;;12.86;61.20;100107.75;5107376;28;20241;-64
2021/05/21 04:57:07;;;;;;;9.47;8.47;;;;;;;12.77;60.60;100106.09;5100034;28;20218;-65
2021/05/21 04:59:33;;;;;;;9.60;8.70;;;;;;;12.76;60.96;100107.00;5099917;28;20525;-65
2021/05/21 05:01:59;;;;;;;9.70;8.70;;;;;;;12.80;60.61;100104.31;5112762;28;20262;-65
2021/05/21 05:04:24;;;;;;;10.20;8.37;;;;;;;11.94;62.39;100110.19;5099638;28;20192;-65
2021/05/21 05:06:49;;;;;;;11.53;8.27;;;;;;;12.61;60.91;100098.41;5099544;28;20183;-65
2021/05/21 05:09:15;;;;;;;8.27;7.57;;;;;;;12.52;61.49;100090.63;5114691;28;20182;-64
2021/05/21 05:11:42;;;;;;;8.90;7.80;;;;;;;13.13;58.72;100089.13;5106112;28;20515;-64
2021/05/21 05:14:08;;;;;;;8.60;7.80;;;;;;;13.22;59.02;100082.94;5106159;28;20164;-64
2021/05/21 05:16:34;;;;;;;8.37;7.50;;;;;;;13.10;59.42;100080.47;5101691;28;20408;-65
2021/05/21 05:19:00;;;;;;;8.10;7.30;;;;;;;13.50;57.48;100066.91;5099682;28;20642;-65
2021/05/21 05:21:26;;;;;;;9.57;7.67;;;;;;;13.83;56.71;100064.72;5100616;28;20534;-65
2021/05/21 05:23:51;;;;;;;8.00;7.30;;;;;;;13.64;57.36;100059.72;5098369;28;20468;-65
2021/05/21 05:26:17;;;;;;;8.70;7.40;;;;;;;13.51;57.63;100060.78;5100301;28;20470;-64
2021/05/21 05:28:45;;;;;;;7.10;6.40;;;;;;;14.05;55.16;100054.75;5099094;28;20206;-68
2021/05/21 05:31:12;;;;;;;7.33;6.30;;;;;;;14.36;55.38;100056.88;5098254;28;20602;-65
2021/05/21 05:33:37;;;;;;;8.07;7.00;;;;;;;14.46;55.22;100047.09;5100332;28;20470;-65
2021/05/21 05:36:03;;;;;;;7.80;7.00;;;;;;;13.81;56.77;100062.13;5101711;28;20697;-65
2021/05/21 05:38:30;;;;;;;7.93;7.23;;;;;;;13.92;56.84;100050.59;5099143;28;20263;-65
2021/05/21 05:40:55;;;;;;;8.50;7.60;;;;;;;14.39;54.99;100035.84;5098864;28;20434;-64
2021/05/21 05:43:21;;;;;;;7.73;7.03;;;;;;;14.06;56.01;100042.50;5100988;27;20832;-65
2021/05/21 05:45:46;;;;;;;7.97;7.27;;;;;;;14.13;55.77;100028.44;5119248;27;20210;-65
2021/05/21 05:48:11;;;;;;;12.10;7.10;;;;;;;14.26;55.62;100026.47;5117249;28;20503;-65
2021/05/21 05:50:37;;;;;;;9.70;7.97;;;;;;;13.85;56.46;100020.16;5119000;28;20168;-64
2021/05/21 05:53:02;;;;;;;8.10;7.40;;;;;;;13.06;58.79;100024.69;5115669;28;20537;-65
2021/05/21 05:55:27;;;;;;;8.63;7.83;;;;;;;13.73;57.39;100015.97;5119372;28;20240;-64
2021/05/21 05:57:52;;;;;;;7.70;7.00;;;;;;;12.99;59.56;100023.03;5118580;28;20174;-65
2021/05/21 06:00:18;;;;;;;7.83;7.13;;;;;;;13.60;58.12;100004.81;5118828;28;20172;-65
2021/05/21 06:02:44;;;;;;;8.57;7.83;;;;;;;13.35;58.58;99999.88;5116126;28;20209;-65
2021/05/21 06:05:09;;;;;;;8.43;7.23;;;;;;;13.70;57.71;100002.91;5103597;28;20785;-64
2021/05/21 06:07:35;;;;;;;8.10;7.30;;;;;;;13.40;58.70;100007.72;5115979;28;20180;-64
2021/05/21 06:10:00;;;;;;;7.47;6.67;;;;;;;13.28;60.28;99998.22;5119186;28;20216;-65
2021/05/21 06:12:25;;;;;;;7.73;7.03;;;;;;;14.36;56.10;100000.97;5106830;28;20231;-64
2021/05/21 06:14:51;;;;;;;8.63;7.23;;;;;;;14.13;56.59;100000.47;5118509;28;20168;-65
2021/05/21 06:17:18;;;;;;;8.43;7.20;;;;;;;14.71;54.89;99989.84;5099685;28;20192;-65
2021/05/21 06:19:43;;;;;;;7.37;6.67;;;;;;;13.77;57.83;99997.56;5097478;28;20179;-65
2021/05/21 06:22:09;;;;;;;7.30;6.67;;;;;;;14.09;57.08;99985.69;5111901;28;20785;-65
2021/05/21 06:24:35;;;;;;;7.03;6.40;;;;;;;14.76;55.17;99989.75;5108292;28;20314;-66
2021/05/21 06:27:16;;;;;;;7.93;6.67;;;;;;;15.14;53.96;99981.09;5130682;27;20190;-66
2021/05/21 06:29:41;;;;;;;7.47;5.63;;;;;;;15.52;52.79;99977.63;5115242;27;20580;-65
2021/05/21 06:32:07;;;;;;;5.60;4.77;;;;;;;14.71;54.28;99976.72;5116562;27;20428;-66
2021/05/21 06:34:32;;;;;;;6.13;4.60;;;;;;;15.47;53.01;99978.59;5118196;28;20159;-66
2021/05/21 06:36:57;;;;;;;5.50;4.70;;;;;;;15.59;52.82;99974.00;5118509;28;20430;-66
2021/05/21 06:39:23;;;;;;;6.60;4.50;;;;;;;15.53;52.84;99966.25;5133148;28;20175;-66
2021/05/21 06:41:48;;;;;;;5.87;4.43;;;;;;;15.58;51.90;99967.84;5116781;28;20434;-66
2021/05/21 06:44:13;;;;;;;6.30;4.00;;;;;;;15.97;50.79;99969.59;5098240;28;20196;-66
2021/05/21 06:46:39;;;;;;;4.77;3.57;;;;;;;15.57;51.25;99963.50;5099981;28;20183;-66
2021/05/21 06:49:10;;;;;;;4.23;3.90;;;;;;;15.65;51.66;99960.69;5118023;28;20176;-64
2021/05/21 06:51:36;;;;;;;4.20;3.80;;;;;;;16.45;49.52;99960.44;5102713;28;20176;-66
2021/05/21 06:54:01;;;;;;;4.20;3.70;;;;;;;16.35;49.37;99964.25;5110117;28;20432;-66
2021/05/21 06:56:26;;;;;;;7.37;3.87;;;;;;;16.45;48.85;99963.97;5128678;27;20552;-65
2021/05/21 06:58:51;;;;;;;4.20;3.37;;;;;;;16.14;49.18;99954.25;5108265;28;20284;-66
2021/05/21 07:01:17;;;;;;;5.40;4.00;;;;;;;16.40;49.33;99955.31;5100601;28;20212;-65
2021/05/21 07:03:43;;;;;;;3.77;3.47;;;;;;;15.65;51.01;99958.94;5101187;28;20179;-65
2021/05/21 07:06:08;;;;;;;3.93;3.53;;;;;;;16.06;50.69;99958.84;5104491;28;20183;-65
2021/05/21 07:08:33;;;;;;;5.53;4.60;;;;;;;16.10;50.66;99951.72;5105128;28;20204;-66
2021/05/21 07:10:59;;;;;;;4.43;3.47;;;;;;;16.36;49.29;99951.06;5101093;28;20211;-66
2021/05/21 07:13:26;;;;;;;3.60;3.30;;;;;;;17.15;47.48;99949.69;5120463;28;20179;-66
2021/05/21 07:15:52;;;;;;;3.73;3.00;;;;;;;18.50;45.82;99932.13;5117456;28;20180;-65
2021/05/21 07:18:17;;;;;;;3.73;3.40;;;;;;;19.77;40.57;99933.41;5105940;28;20813;-66
2021/05/21 07:20:45;;;;;;;4.53;3.27;;;;;;;18.92;42.69;99928.00;5122045;28;20557;-67
2021/05/21 07:23:10;;;;;;;4.83;3.17;;;;;;;18.85;42.56;99922.88;5121512;27;20262;-64
2021/05/21 07:25:36;;;;;;;3.30;3.00;;;;;;;17.63;45.85;99929.78;5106234;28;20527;-66
2021/05/21 07:28:01;;;;;;;4.37;3.40;;;;;;;17.06;46.88;99931.56;5101490;28;20192;-66
2021/05/21 07:30:26;;;;;;;4.40;3.40;;;;;;;16.95;46.83;99924.00;5109226;28;20270;-66
2021/05/21 07:32:52;;;;;;;4.90;3.20;;;;;;;18.34;44.67;99923.88;5121173;28;20218;-65
2021/05/21 07:35:17;;;;;;;5.10;3.70;;;;;;;19.14;42.53;99915.66;5107190;28;20259;-67
2021/05/21 07:37:44;;;;;;;6.43;3.40;;;;;;;19.22;41.24;99914.50;5101414;28;20215;-67
2021/05/21 07:40:10;;;;;;;8.90;3.80;;;;;;;20.30;40.42;99915.34;5100708;28;20169;-65
2021/05/21 07:42:36;;;;;;;4.50;3.10;;;;;;;20.51;39.10;99898.50;5109622;28;20441;-67
2021/05/21 07:45:02;;;;;;;5.00;3.23;;;;;;;20.40;39.62;99895.47;5105804;28;20215;-67
2021/05/21 07:47:27;;;;;;;7.47;3.70;;;;;;;20.50;39.77;99898.59;5105359;28;20441;-60
2021/05/21 07:49:53;;;;;;;4.90;3.20;;;;;;;21.44;38.20;99883.56;5115051;28;20176;-59
2021/05/21 07:52:18;;;;;;;5.67;3.40;;;;;;;21.87;35.90;99877.94;5108360;28;20479;-58
2021/05/21 07:54:43;;;;;;;7.57;3.40;;;;;;;21.39;37.41;99877.63;5119849;28;20428;-59
2021/05/21 07:57:10;;;;;;;7.57;3.47;;;;;;;20.39;39.69;99883.19;5119023;28;20183;-61
2021/05/21 07:59:35;;;;;;;3.67;3.37;;;;;;;20.37;40.47;99887.66;5104629;27;20191;-61
2021/05/21 08:02:00;;;;;;;3.83;3.53;;;;;;;20.48;38.63;99876.59;5113898;28;20437;-60
2021/05/21 08:04:26;;;;;;;4.10;3.70;;;;;;;19.38;41.20;99881.25;5118878;28;20188;-54
2021/05/21 08:06:51;;;;;;;4.57;3.70;;;;;;;18.03;44.26;99885.41;5109457;28;20199;-56
2021/05/21 08:09:17;;;;;;;5.23;4.17;;;;;;;17.59;46.00;99890.38;5107896;28;20171;-59
2021/05/21 08:11:43;;;;;;;5.13;4.10;;;;;;;17.42;48.58;99904.97;5117341;28;20611;-58
2021/05/21 08:14:09;;;;;;;5.77;5.00;;;;;;;16.64;53.30;99948.53;5120517;28;20464;-57
2021/05/21 08:16:35;;;;;;;6.60;4.87;;;;;;;13.83;60.85;100001.84;5119422;28;20549;-65
2021/05/21 08:19:00;;;;;;;6.67;4.67;;;;;;;11.10;67.18;100045.34;5106258;28;20465;-64
2021/05/21 08:21:26;;;;;;;8.30;4.10;;;;;;;10.87;68.05;100034.97;5113224;28;20422;-64
2021/05/21 08:23:52;;;;;;;5.27;4.63;;;;;;;11.20;67.63;100014.00;5117589;28;20191;-65
2021/05/21 08:26:18;;;;;;;3.90;3.50;;;;;;;11.73;66.75;100012.84;5099908;28;20506;-64
2021/05/21 08:28:44;;;;;;;6.73;3.77;;;;;;;12.12;65.99;100013.44;5105257;27;20445;-65
2021/05/21 08:31:10;;;;;;;5.00;3.53;;;;;;;12.25;65.96;100000.25;5119876;28;20562;-65
2021/05/21 08:33:43;;;;;;;5.03;3.50;;;;;;;12.67;64.08;100005.94;5108065;28;20187;-65
2021/05/21 08:36:08;;;;;;;5.73;3.67;;;;;;;12.92;64.22;99989.94;5109045;28;20438;-64
2021/05/21 08:38:33;;;;;;;6.40;3.83;;;;;;;13.39;63.82;99978.03;5099813;28;20901;-64
2021/05/21 08:40:59;;;;;;;5.90;3.60;;;;;;;13.47;62.80;99963.06;5117057;28;20179;-64
2021/05/21 08:43:25;;;;;;;7.37;3.90;;;;;;;13.11;63.22;99965.31;5103706;28;20573;-64
2021/05/21 08:45:50;;;;;;;5.93;4.00;;;;;;;13.80;62.49;99958.22;5103938;28;20578;-64
2021/05/21 08:48:19;;;;;;;5.23;4.00;;;;;;;14.27;61.56;99955.66;5099979;28;20175;-64
2021/05/21 08:50:44;;;;;;;5.63;4.00;;;;;;;14.26;61.51;99951.31;5104101;28;20184;-65
2021/05/21 08:53:10;;;;;;;6.50;4.03;;;;;;;14.47;61.46;99960.53;5104445;28;20729;-64
2021/05/21 08:55:35;;;;;;;6.83;4.23;;;;;;;14.49;61.18;99955.25;5108270;27;20457;-65
2021/05/21 08:58:01;;;;;;;6.27;4.00;;;;;;;14.47;61.41;99954.44;5119221;28;20349;-65
2021/05/21 09:00:26;;;;;;;4.23;3.87;;;;;;;14.40;63.45;99948.44;5117888;28;20175;-65
2021/05/21 09:02:52;;;;;;;4.97;4.10;;;;;;;14.75;61.91;99956.56;5111472;28;20561;-65
2021/05/21 09:05:17;;;;;;;9.77;4.50;;;;;;;14.74;60.35;99962.69;5108899;28;20251;-64
2021/05/21 09:07:43;;;;;;;4.40;4.00;;;;;;;14.64;60.34;99951.53;5099338;28;20278;-64
2021/05/21 09:10:13;;;;;;;6.67;3.93;;;;;;;14.78;58.28;99945.97;5099380;28;20180;-64
2021/05/21 09:12:43;;;;;;;3.90;3.47;;;;;;;14.56;57.88;99953.38;5106244;28;20176;-64
2021/05/21 09:15:16;;;;;;;5.10;3.77;;;;;;;14.88;56.55;99949.28;5118056;28;20793;-65
2021/05/21 09:18:02;;;;;;;5.00;4.03;;;;;;;15.88;54.71;99936.50;5103733;28;20806;-64
2021/05/21 09:20:30;;;;;;;8.27;4.60;;;;;;;16.13;57.31;99930.63;5104594;28;20441;-66
2021/05/21 09:23:01;;;;;;;4.30;3.67;;;;;;;17.55;52.83;99921.25;5100932;28;20699;-64
2021/05/21 09:25:46;;;;;;;5.00;4.03;;;;;;;18.51;47.89;99918.03;5104761;28;20716;-64
2021/05/21 09:28:34;;;;;;;9.27;5.23;;;;;;;19.94;44.52;99911.56;5099817;28;20436;-64
2021/05/21 09:31:17;;;;;;;5.60;3.60;;;;;;;21.23;41.47;99912.00;5098223;28;20443;-64
2021/05/21 09:33:45;;;;;;;5.53;3.43;;;;;;;21.11;40.46;99912.59;5106647;28;20566;-65
2021/05/21 09:36:12;;;;;;;4.87;3.30;;;;;;;20.93;42.44;99906.34;5097842;28;20417;-65
2021/05/21 09:38:45;;;;;;;7.13;3.63;;;;;;;19.39;47.44;99904.13;5108505;28;20698;-66
2021/05/21 09:41:10;;;;;;;7.13;3.87;;;;;;;20.19;44.77;99892.00;5108197;28;20437;-66
2021/05/21 09:43:36;;;;;;;6.97;3.90;;;;;;;17.13;50.04;99890.06;5107232;28;20544;-66
2021/05/21 09:46:09;;;;;;;6.53;3.90;;;;;;;18.66;47.50;99891.03;5105076;28;20208;-66
2021/05/21 09:48:35;;;;;;;5.33;3.50;;;;;;;20.32;43.59;99881.72;5106257;28;20183;-66
2021/05/21 09:51:00;;;;;;;5.37;3.57;;;;;;;21.78;41.86;99873.09;5100875;28;20437;-66
2021/05/21 09:53:25;;;;;;;8.00;4.30;;;;;;;21.46;39.49;99871.13;5108795;28;20176;-66
2021/05/21 09:56:00;;;;;;;6.00;3.20;;;;;;;21.78;38.85;99865.16;5107552;28;20184;-67
2021/05/21 09:58:41;;;;;;;6.37;3.43;;;;;;;22.00;38.42;99852.50;5107145;28;20181;-66
2021/05/21 10:01:17;;;;;;;4.97;3.13;;;;;;;22.26;37.01;99852.91;5106037;28;20438;-65
2021/05/21 10:03:46;;;;;;;5.67;3.40;;;;;;;23.10;35.74;99840.41;5107399;28;20487;-65
2021/05/21 10:06:12;;;;;;;6.87;4.27;;;;;;;23.52;33.49;99842.41;5117920;28;20453;-65
2021/05/21 10:08:42;;;;;;;6.97;3.83;;;;;;;23.03;33.79;99845.22;5104173;28;20469;-65
2021/05/21 10:11:09;;;;;;;4.77;3.50;;;;;;;22.09;34.76;99842.34;5104124;28;20440;-65
2021/05/21 10:13:35;;;;;;;5.90;3.50;;;;;;;22.93;34.08;99836.03;5105381;28;20433;-65
2021/05/21 10:16:01;;;;;;;8.80;3.87;;;;;;;21.81;33.31;99849.94;5116744;27;20441;-66
2021/05/21 10:18:27;;;;;;;4.97;3.43;;;;;;;22.01;32.97;99845.38;5109188;28;20503;-64
2021/05/21 10:20:54;;;;;;;5.77;3.90;;;;;;;21.55;34.05;99853.06;5112323;28;20176;-65
2021/05/21 10:23:21;;;;;;;7.80;4.10;;;;;;;21.07;35.25;99864.19;5110477;28;20187;-65
2021/05/21 10:25:50;;;;;;;7.40;3.50;;;;;;;21.60;32.54;99864.28;5096977;28;20478;-65
2021/05/21 10:28:17;;;;;;;4.43;3.33;;;;;;;21.08;35.78;99865.91;5101849;28;20713;-65
2021/05/21 10:30:43;;;;;;;5.00;3.60;;;;;;;21.67;33.29;99855.94;5122473;27;20436;-65
2021/05/21 10:33:11;;;;;;;7.40;3.53;;;;;;;23.26;31.43;99851.91;5111067;28;20446;-66
2021/05/21 10:35:37;;;;;;;7.17;3.80;;;;;;;23.13;31.15;99841.13;5108421;28;20172;-65
2021/05/21 10:38:19;;;;;;;9.00;3.70;;;;;;;21.72;34.59;99845.09;5102177;28;20481;-65
2021/05/21 10:40:45;;;;;;;5.70;3.73;;;;;;;22.14;34.03;99840.31;5102346;28;20176;-65
2021/05/21 10:43:17;;;;;;;5.77;3.30;;;;;;;21.50;34.45;99861.19;5108203;28;20528;-65
2021/05/21 10:45:53;;;;;;;6.00;3.43;;;;;;;21.99;34.40;99836.66;5102728;28;20222;-65
2021/05/21 10:48:25;;;;;;;6.97;3.77;;;;;;;21.61;33.05;99836.81;5116869;28;20444;-64
2021/05/21 10:51:06;;;;;;;8.13;4.03;;;;;;;21.50;35.18;99840.84;5122081;28;20417;-65
2021/05/21 10:53:32;;;;;;;5.47;3.77;;;;;;;20.85;35.21;99832.53;5120769;28;20448;-64
2021/05/21 10:55:57;;;;;;;6.90;3.57;;;;;;;22.44;33.09;99826.34;5120481;27;20447;-65
2021/05/21 10:58:29;;;;;;;7.60;4.33;;;;;;;21.57;33.38;99827.31;5122035;28;20178;-65
2021/05/21 11:01:07;;;;;;;6.73;3.77;;;;;;;21.65;33.88;99843.69;5120707;28;20549;-64
2021/05/21 11:03:58;;;;;;;7.67;4.17;;;;;;;21.70;35.36;99828.38;5121922;28;20455;-65
2021/05/21 11:06:25;;;;;;;10.30;3.80;;;;;;;22.51;33.60;99833.88;5113565;27;20458;-65
2021/05/21 11:09:01;;;;;;;6.63;4.40;;;;;;;21.03;35.09;99841.41;5117846;28;20458;-65
2021/05/21 11:11:48;;;;;;;8.60;4.00;;;;;;;20.22;36.16;99857.44;5113863;28;20436;-65
2021/05/21 11:14:19;;;;;;;7.27;3.90;;;;;;;19.83;36.69;99847.69;5102308;28;20511;-64
2021/05/21 11:16:52;;;;;;;8.63;4.77;;;;;;;20.34;36.20;99841.00;5101076;28;20865;-66
2021/05/21 11:19:24;;;;;;;6.50;4.00;;;;;;;20.37;36.35;99837.38;5101009;28;20428;-66